Christina G — ZCXO5 — position and weather

sailwx.info

Track history (hours):
 
Tides and Currents Weather Stations Pressure Air Temp Water Temp Dewpoint Dewpoint Depression Visibility Wind Speed Wind Dir Waves Ship Positions

Christina G

Last reported at 2016-Jun-28 14:16 UTC. Time now 2016-Jun-28 17:04 UTC.
Position N 38°47' E 001°18'.

Length 33 m; draft 2.5 m.

MMSI: 319032100.

Date/timePositionNaut miles runAvg speedWind from/ knotsBaromVisibWave heightAir tempDewpointWater temp
2016-Jun-28 14:16N 38°47' E 001°18'  
2016-Jun-25 23:10N 38°49' E 001°23'5 8.5
2016-Jun-25 22:33N 38°53' E 001°27'16 1.9
2016-Jun-25 14:10N 39°03' E 001°44'6 9.8
2016-Jun-25 13:31N 39°06' E 001°51'9 9.7
2016-Jun-25 12:33N 39°11' E 002°01'10 9.9
2016-Jun-25 11:33N 39°16' E 002°12'1010.0
2016-Jun-25 10:33N 39°22' E 002°22'8 8.1
2016-Jun-25 09:33N 39°27' E 002°31'8 7.8
2016-Jun-25 08:33N 39°32' E 002°38'2 1.5
2016-Jun-25 07:31N 39°34' E 002°38'0 0.0
2016-Jun-25 06:31N 39°34' E 002°38'0 0.0
2016-Jun-25 05:31N 39°34' E 002°38'0 0.0
2016-Jun-25 04:31N 39°34' E 002°38'0 0.0
2016-Jun-25 03:31N 39°34' E 002°38'0 0.0
2016-Jun-25 02:31N 39°34' E 002°38'0 0.0
2016-Jun-25 01:31N 39°34' E 002°38'0 0.0
2016-Jun-25 00:31N 39°34' E 002°38'0 0.0
2016-Jun-24 23:31N 39°34' E 002°38'0 0.0
2016-Jun-24 22:31N 39°34' E 002°38'0 0.0
2016-Jun-24 21:31N 39°34' E 002°38'0 0.0
2016-Jun-24 20:31N 39°34' E 002°38'0 0.0
2016-Jun-24 19:31N 39°34' E 002°38'0 0.0
2016-Jun-24 18:31N 39°34' E 002°38'0 0.0
2016-Jun-24 17:31N 39°34' E 002°38'0 0.0
2016-Jun-24 16:31N 39°34' E 002°38'0 0.0
2016-Jun-24 15:28N 39°34' E 002°38'0 0.0
2016-Jun-24 14:31N 39°34' E 002°38'0 0.0
2016-Jun-24 13:31N 39°34' E 002°38'0 0.0
2016-Jun-24 12:31N 39°34' E 002°38'0 0.0
2016-Jun-24 11:31N 39°34' E 002°38'0 0.0
2016-Jun-24 10:31N 39°34' E 002°38'0 0.0
2016-Jun-24 09:31N 39°34' E 002°38'0 0.0
2016-Jun-24 08:31N 39°34' E 002°38'0 0.0
2016-Jun-24 07:31N 39°34' E 002°38'0 0.0
2016-Jun-24 04:31N 39°34' E 002°38'0 0.0
2016-Jun-24 03:31N 39°34' E 002°38'0 0.0
2016-Jun-24 02:25N 39°34' E 002°38'0 0.0
2016-Jun-24 01:31N 39°34' E 002°38'0 0.0
2016-Jun-24 00:31N 39°34' E 002°38'0 0.0
2016-Jun-23 23:31N 39°34' E 002°38'0 0.0
2016-Jun-23 22:31N 39°34' E 002°38'0 0.0
2016-Jun-23 21:31N 39°34' E 002°38'0 0.0
2016-Jun-23 20:28N 39°34' E 002°38'0 0.0
2016-Jun-23 19:31N 39°34' E 002°38'0 0.0
2016-Jun-23 18:31N 39°34' E 002°38'0 0.0
2016-Jun-23 17:28N 39°34' E 002°38'0 0.0
2016-Jun-23 16:31N 39°34' E 002°38'0 0.0
2016-Jun-23 14:32N 39°34' E 002°38'0 0.0
2016-Jun-23 13:31N 39°34' E 002°38'0 0.0
2016-Jun-23 12:31N 39°34' E 002°38'0 0.0
2016-Jun-23 11:31N 39°34' E 002°38'0 0.0
2016-Jun-23 10:31N 39°34' E 002°38'0 0.0
2016-Jun-23 09:31N 39°34' E 002°38'0 0.0
2016-Jun-23 08:31N 39°34' E 002°38'0 0.0
2016-Jun-23 07:31N 39°34' E 002°38'0 0.0
2016-Jun-23 05:31N 39°34' E 002°38'0 0.0
2016-Jun-23 04:31N 39°34' E 002°38'0 0.0
2016-Jun-23 03:28N 39°34' E 002°38'0 0.0
2016-Jun-23 02:31N 39°34' E 002°38'0 0.0
2016-Jun-23 01:31N 39°34' E 002°38'0 0.0
2016-Jun-23 00:31N 39°34' E 002°38'0 0.0
2016-Jun-22 23:31N 39°34' E 002°38'0 0.0
2016-Jun-22 22:31N 39°34' E 002°38'0 0.0
2016-Jun-22 21:31N 39°34' E 002°38'0 0.0
2016-Jun-22 20:31N 39°34' E 002°38'0 0.0
2016-Jun-22 19:31N 39°34' E 002°38'0 0.0
2016-Jun-22 18:31N 39°34' E 002°38'0 0.0
2016-Jun-22 17:31N 39°34' E 002°38'0 0.0
2016-Jun-22 16:28N 39°34' E 002°38'0 0.0
2016-Jun-22 15:31N 39°34' E 002°38'0 0.0
2016-Jun-22 14:31N 39°34' E 002°38'0 0.0
2016-Jun-22 13:31N 39°34' E 002°38'0 0.0
2016-Jun-22 12:31N 39°34' E 002°38'0 0.0
2016-Jun-22 11:31N 39°34' E 002°38'0 0.0
2016-Jun-22 10:25N 39°34' E 002°38'0 0.0
2016-Jun-22 09:22N 39°34' E 002°38'0 0.0
2016-Jun-22 08:31N 39°34' E 002°38'0 0.0
2016-Jun-22 07:31N 39°34' E 002°38'0 0.0
2016-Jun-22 06:25N 39°34' E 002°38'0 0.0
2016-Jun-22 05:31N 39°34' E 002°38'0 0.0
2016-Jun-22 04:31N 39°34' E 002°38'0 0.0
2016-Jun-22 03:31N 39°34' E 002°38'0 0.0
2016-Jun-22 02:31N 39°34' E 002°38'0 0.0
2016-Jun-22 01:31N 39°34' E 002°38'0 0.0
2016-Jun-22 00:31N 39°34' E 002°38'0 0.0
2016-Jun-21 23:31N 39°34' E 002°38'0 0.0
2016-Jun-21 22:31N 39°34' E 002°38'0 0.0
2016-Jun-21 21:31N 39°34' E 002°38'0 0.0
2016-Jun-21 20:31N 39°34' E 002°38'0 0.0
2016-Jun-21 19:31N 39°34' E 002°38'0 0.0
2016-Jun-21 18:31N 39°34' E 002°38'0 0.0
2016-Jun-21 17:31N 39°34' E 002°38'0 0.0
2016-Jun-21 16:31N 39°34' E 002°38'0 0.0
2016-Jun-21 15:28N 39°34' E 002°38'0 0.0
2016-Jun-21 14:28N 39°34' E 002°38'0 0.0
2016-Jun-21 13:31N 39°34' E 002°38'0 0.0
2016-Jun-21 12:31N 39°34' E 002°38'0 0.0
2016-Jun-21 11:25N 39°34' E 002°38'0 0.0
2016-Jun-21 10:31N 39°34' E 002°38'0 0.0
2016-Jun-21 09:31N 39°34' E 002°38'0 0.0
2016-Jun-21 08:31N 39°34' E 002°38'0 0.0
2016-Jun-21 07:31N 39°34' E 002°38'0 0.0
2016-Jun-21 04:31N 39°34' E 002°38'0 0.0
2016-Jun-21 03:31N 39°34' E 002°38'0 0.0
2016-Jun-21 02:31N 39°34' E 002°38'0 0.0
2016-Jun-21 01:31N 39°34' E 002°38'0 0.0
2016-Jun-21 00:31N 39°34' E 002°38'0 0.0
2016-Jun-20 23:31N 39°34' E 002°38'0 0.0
2016-Jun-20 22:31N 39°34' E 002°38'0 0.0
2016-Jun-20 21:31N 39°34' E 002°38'0 0.0
2016-Jun-20 20:31N 39°34' E 002°38'0 0.0
2016-Jun-20 19:31N 39°34' E 002°38'0 0.0
2016-Jun-20 18:31N 39°34' E 002°38'0 0.0
2016-Jun-20 17:28N 39°34' E 002°38'0 0.0
2016-Jun-20 16:31N 39°34' E 002°38'0 0.0
2016-Jun-20 15:31N 39°34' E 002°38'0 0.0
2016-Jun-20 14:31N 39°34' E 002°38'0 0.0
2016-Jun-20 13:31N 39°34' E 002°38'0 0.0
2016-Jun-20 12:28N 39°34' E 002°38'0 0.0
2016-Jun-20 11:31N 39°34' E 002°38'0 0.0
2016-Jun-20 10:31N 39°34' E 002°38'0 0.0
2016-Jun-20 09:31N 39°34' E 002°38'0 0.0
2016-Jun-20 08:31N 39°34' E 002°38'0 0.0
2016-Jun-20 07:31N 39°34' E 002°38'0 0.0
2016-Jun-20 06:31N 39°34' E 002°38'0 0.0
2016-Jun-20 05:31N 39°34' E 002°38'0 0.0
2016-Jun-20 04:31N 39°34' E 002°38'0 0.0
2016-Jun-20 03:31N 39°34' E 002°38'0 0.0
2016-Jun-20 02:31N 39°34' E 002°38'0 0.0
2016-Jun-20 01:31N 39°34' E 002°38'0 0.0
2016-Jun-20 00:31N 39°34' E 002°38'0 0.0
2016-Jun-19 23:31N 39°34' E 002°38'0 0.0
2016-Jun-19 22:31N 39°34' E 002°38'0 0.0
2016-Jun-19 21:31N 39°34' E 002°38'0 0.0
2016-Jun-19 20:31N 39°34' E 002°38'0 0.0
2016-Jun-19 19:31N 39°34' E 002°38'0 0.0
2016-Jun-19 18:31N 39°34' E 002°38'0 0.0
2016-Jun-19 17:31N 39°34' E 002°38'0 0.0
2016-Jun-19 16:31N 39°34' E 002°38'0 0.0
2016-Jun-19 15:25N 39°34' E 002°38'0 0.0
2016-Jun-19 14:31N 39°34' E 002°38'0 0.0
2016-Jun-19 13:31N 39°34' E 002°38'0 0.0
2016-Jun-19 12:31N 39°34' E 002°38'0 0.0
2016-Jun-19 11:31N 39°34' E 002°38'0 0.0
2016-Jun-19 10:31N 39°34' E 002°38'0 0.0
2016-Jun-19 09:31N 39°34' E 002°38'0 0.0
2016-Jun-19 08:31N 39°34' E 002°38'0 0.0
2016-Jun-19 07:31N 39°34' E 002°38'0 0.0
2016-Jun-19 06:31N 39°34' E 002°38'0 0.0
2016-Jun-19 05:31N 39°34' E 002°38'0 0.0
2016-Jun-19 04:31N 39°34' E 002°38'0 0.0
2016-Jun-19 03:31N 39°34' E 002°38'0 0.0
2016-Jun-19 02:31N 39°34' E 002°38'0 0.0
2016-Jun-19 01:31N 39°34' E 002°38'0 0.0
2016-Jun-19 00:31N 39°34' E 002°38'0 0.0
2016-Jun-18 23:31N 39°34' E 002°38'0 0.0
2016-Jun-18 22:31N 39°34' E 002°38'0 0.0
2016-Jun-18 21:31N 39°34' E 002°38'0 0.0
2016-Jun-18 20:31N 39°34' E 002°38'0 0.0
2016-Jun-18 19:31N 39°34' E 002°38'0 0.0
2016-Jun-18 18:31N 39°34' E 002°38'0 0.0
2016-Jun-18 17:34N 39°34' E 002°38'0 0.0
2016-Jun-18 16:31N 39°34' E 002°38'0 0.0
2016-Jun-18 15:31N 39°34' E 002°38'0 0.0
2016-Jun-18 14:31N 39°34' E 002°38'  
Track history (hours):
 
Tides and Currents Weather Stations Pressure Air Temp Water Temp Dewpoint Dewpoint Depression Visibility Wind Speed Wind Dir Waves Ship Positions

Christina G

Last reported at 2016-Jun-28 14:16 UTC. Time now 2016-Jun-28 17:04 UTC.
Position N 38°47' E 001°18'.

Length 33 m; draft 2.5 m.

MMSI: 319032100.

Date/timePositionNaut miles runAvg speedWind from/ knotsBaromVisibWave heightAir tempDewpointWater temp
2016-Jun-28 14:16N 38°47' E 001°18'  
2016-Jun-25 23:10N 38°49' E 001°23'5 8.5
2016-Jun-25 22:33N 38°53' E 001°27'16 1.9
2016-Jun-25 14:10N 39°03' E 001°44'6 9.8
2016-Jun-25 13:31N 39°06' E 001°51'9 9.7
2016-Jun-25 12:33N 39°11' E 002°01'10 9.9
2016-Jun-25 11:33N 39°16' E 002°12'1010.0
2016-Jun-25 10:33N 39°22' E 002°22'8 8.1
2016-Jun-25 09:33N 39°27' E 002°31'8 7.8
2016-Jun-25 08:33N 39°32' E 002°38'2 1.5
2016-Jun-25 07:31N 39°34' E 002°38'0 0.0
2016-Jun-25 06:31N 39°34' E 002°38'0 0.0
2016-Jun-25 05:31N 39°34' E 002°38'0 0.0
2016-Jun-25 04:31N 39°34' E 002°38'0 0.0
2016-Jun-25 03:31N 39°34' E 002°38'0 0.0
2016-Jun-25 02:31N 39°34' E 002°38'0 0.0
2016-Jun-25 01:31N 39°34' E 002°38'0 0.0
2016-Jun-25 00:31N 39°34' E 002°38'0 0.0
2016-Jun-24 23:31N 39°34' E 002°38'0 0.0
2016-Jun-24 22:31N 39°34' E 002°38'0 0.0
2016-Jun-24 21:31N 39°34' E 002°38'0 0.0
2016-Jun-24 20:31N 39°34' E 002°38'0 0.0
2016-Jun-24 19:31N 39°34' E 002°38'0 0.0
2016-Jun-24 18:31N 39°34' E 002°38'0 0.0
2016-Jun-24 17:31N 39°34' E 002°38'0 0.0
2016-Jun-24 16:31N 39°34' E 002°38'0 0.0
2016-Jun-24 15:28N 39°34' E 002°38'0 0.0
2016-Jun-24 14:31N 39°34' E 002°38'0 0.0
2016-Jun-24 13:31N 39°34' E 002°38'0 0.0
2016-Jun-24 12:31N 39°34' E 002°38'0 0.0
2016-Jun-24 11:31N 39°34' E 002°38'0 0.0
2016-Jun-24 10:31N 39°34' E 002°38'0 0.0
2016-Jun-24 09:31N 39°34' E 002°38'0 0.0
2016-Jun-24 08:31N 39°34' E 002°38'0 0.0
2016-Jun-24 07:31N 39°34' E 002°38'0 0.0
2016-Jun-24 04:31N 39°34' E 002°38'0 0.0
2016-Jun-24 03:31N 39°34' E 002°38'0 0.0
2016-Jun-24 02:25N 39°34' E 002°38'0 0.0
2016-Jun-24 01:31N 39°34' E 002°38'0 0.0
2016-Jun-24 00:31N 39°34' E 002°38'0 0.0
2016-Jun-23 23:31N 39°34' E 002°38'0 0.0
2016-Jun-23 22:31N 39°34' E 002°38'0 0.0
2016-Jun-23 21:31N 39°34' E 002°38'0 0.0
2016-Jun-23 20:28N 39°34' E 002°38'0 0.0
2016-Jun-23 19:31N 39°34' E 002°38'0 0.0
2016-Jun-23 18:31N 39°34' E 002°38'0 0.0
2016-Jun-23 17:28N 39°34' E 002°38'0 0.0
2016-Jun-23 16:31N 39°34' E 002°38'0 0.0
2016-Jun-23 14:32N 39°34' E 002°38'0 0.0
2016-Jun-23 13:31N 39°34' E 002°38'0 0.0
2016-Jun-23 12:31N 39°34' E 002°38'0 0.0
2016-Jun-23 11:31N 39°34' E 002°38'0 0.0
2016-Jun-23 10:31N 39°34' E 002°38'0 0.0
2016-Jun-23 09:31N 39°34' E 002°38'0 0.0
2016-Jun-23 08:31N 39°34' E 002°38'0 0.0
2016-Jun-23 07:31N 39°34' E 002°38'0 0.0
2016-Jun-23 05:31N 39°34' E 002°38'0 0.0
2016-Jun-23 04:31N 39°34' E 002°38'0 0.0
2016-Jun-23 03:28N 39°34' E 002°38'0 0.0
2016-Jun-23 02:31N 39°34' E 002°38'0 0.0
2016-Jun-23 01:31N 39°34' E 002°38'0 0.0
2016-Jun-23 00:31N 39°34' E 002°38'0 0.0
2016-Jun-22 23:31N 39°34' E 002°38'0 0.0
2016-Jun-22 22:31N 39°34' E 002°38'0 0.0
2016-Jun-22 21:31N 39°34' E 002°38'0 0.0
2016-Jun-22 20:31N 39°34' E 002°38'0 0.0
2016-Jun-22 19:31N 39°34' E 002°38'0 0.0
2016-Jun-22 18:31N 39°34' E 002°38'0 0.0
2016-Jun-22 17:31N 39°34' E 002°38'0 0.0
2016-Jun-22 16:28N 39°34' E 002°38'0 0.0
2016-Jun-22 15:31N 39°34' E 002°38'0 0.0
2016-Jun-22 14:31N 39°34' E 002°38'0 0.0
2016-Jun-22 13:31N 39°34' E 002°38'0 0.0
2016-Jun-22 12:31N 39°34' E 002°38'0 0.0
2016-Jun-22 11:31N 39°34' E 002°38'0 0.0
2016-Jun-22 10:25N 39°34' E 002°38'0 0.0
2016-Jun-22 09:22N 39°34' E 002°38'0 0.0
2016-Jun-22 08:31N 39°34' E 002°38'0 0.0
2016-Jun-22 07:31N 39°34' E 002°38'0 0.0
2016-Jun-22 06:25N 39°34' E 002°38'0 0.0
2016-Jun-22 05:31N 39°34' E 002°38'0 0.0
2016-Jun-22 04:31N 39°34' E 002°38'0 0.0
2016-Jun-22 03:31N 39°34' E 002°38'0 0.0
2016-Jun-22 02:31N 39°34' E 002°38'0 0.0
2016-Jun-22 01:31N 39°34' E 002°38'0 0.0
2016-Jun-22 00:31N 39°34' E 002°38'0 0.0
2016-Jun-21 23:31N 39°34' E 002°38'0 0.0
2016-Jun-21 22:31N 39°34' E 002°38'0 0.0
2016-Jun-21 21:31N 39°34' E 002°38'0 0.0
2016-Jun-21 20:31N 39°34' E 002°38'0 0.0
2016-Jun-21 19:31N 39°34' E 002°38'0 0.0
2016-Jun-21 18:31N 39°34' E 002°38'0 0.0
2016-Jun-21 17:31N 39°34' E 002°38'0 0.0
2016-Jun-21 16:31N 39°34' E 002°38'0 0.0
2016-Jun-21 15:28N 39°34' E 002°38'0 0.0
2016-Jun-21 14:28N 39°34' E 002°38'0 0.0
2016-Jun-21 13:31N 39°34' E 002°38'0 0.0
2016-Jun-21 12:31N 39°34' E 002°38'0 0.0
2016-Jun-21 11:25N 39°34' E 002°38'0 0.0
2016-Jun-21 10:31N 39°34' E 002°38'0 0.0
2016-Jun-21 09:31N 39°34' E 002°38'0 0.0
2016-Jun-21 08:31N 39°34' E 002°38'0 0.0
2016-Jun-21 07:31N 39°34' E 002°38'0 0.0
2016-Jun-21 04:31N 39°34' E 002°38'0 0.0
2016-Jun-21 03:31N 39°34' E 002°38'0 0.0
2016-Jun-21 02:31N 39°34' E 002°38'0 0.0
2016-Jun-21 01:31N 39°34' E 002°38'0 0.0
2016-Jun-21 00:31N 39°34' E 002°38'0 0.0
2016-Jun-20 23:31N 39°34' E 002°38'0 0.0
2016-Jun-20 22:31N 39°34' E 002°38'0 0.0
2016-Jun-20 21:31N 39°34' E 002°38'0 0.0
2016-Jun-20 20:31N 39°34' E 002°38'0 0.0
2016-Jun-20 19:31N 39°34' E 002°38'0 0.0
2016-Jun-20 18:31N 39°34' E 002°38'0 0.0
2016-Jun-20 17:28N 39°34' E 002°38'0 0.0
2016-Jun-20 16:31N 39°34' E 002°38'0 0.0
2016-Jun-20 15:31N 39°34' E 002°38'0 0.0
2016-Jun-20 14:31N 39°34' E 002°38'0 0.0
2016-Jun-20 13:31N 39°34' E 002°38'0 0.0
2016-Jun-20 12:28N 39°34' E 002°38'0 0.0
2016-Jun-20 11:31N 39°34' E 002°38'0 0.0
2016-Jun-20 10:31N 39°34' E 002°38'0 0.0
2016-Jun-20 09:31N 39°34' E 002°38'0 0.0
2016-Jun-20 08:31N 39°34' E 002°38'0 0.0
2016-Jun-20 07:31N 39°34' E 002°38'0 0.0
2016-Jun-20 06:31N 39°34' E 002°38'0 0.0
2016-Jun-20 05:31N 39°34' E 002°38'0 0.0
2016-Jun-20 04:31N 39°34' E 002°38'0 0.0
2016-Jun-20 03:31N 39°34' E 002°38'0 0.0
2016-Jun-20 02:31N 39°34' E 002°38'0 0.0
2016-Jun-20 01:31N 39°34' E 002°38'0 0.0
2016-Jun-20 00:31N 39°34' E 002°38'0 0.0
2016-Jun-19 23:31N 39°34' E 002°38'0 0.0
2016-Jun-19 22:31N 39°34' E 002°38'0 0.0
2016-Jun-19 21:31N 39°34' E 002°38'0 0.0
2016-Jun-19 20:31N 39°34' E 002°38'0 0.0
2016-Jun-19 19:31N 39°34' E 002°38'0 0.0
2016-Jun-19 18:31N 39°34' E 002°38'0 0.0
2016-Jun-19 17:31N 39°34' E 002°38'0 0.0
2016-Jun-19 16:31N 39°34' E 002°38'0 0.0
2016-Jun-19 15:25N 39°34' E 002°38'0 0.0
2016-Jun-19 14:31N 39°34' E 002°38'0 0.0
2016-Jun-19 13:31N 39°34' E 002°38'0 0.0
2016-Jun-19 12:31N 39°34' E 002°38'0 0.0
2016-Jun-19 11:31N 39°34' E 002°38'0 0.0
2016-Jun-19 10:31N 39°34' E 002°38'0 0.0
2016-Jun-19 09:31N 39°34' E 002°38'0 0.0
2016-Jun-19 08:31N 39°34' E 002°38'0 0.0
2016-Jun-19 07:31N 39°34' E 002°38'0 0.0
2016-Jun-19 06:31N 39°34' E 002°38'0 0.0
2016-Jun-19 05:31N 39°34' E 002°38'0 0.0
2016-Jun-19 04:31N 39°34' E 002°38'0 0.0
2016-Jun-19 03:31N 39°34' E 002°38'0 0.0
2016-Jun-19 02:31N 39°34' E 002°38'0 0.0
2016-Jun-19 01:31N 39°34' E 002°38'0 0.0
2016-Jun-19 00:31N 39°34' E 002°38'0 0.0
2016-Jun-18 23:31N 39°34' E 002°38'0 0.0
2016-Jun-18 22:31N 39°34' E 002°38'0 0.0
2016-Jun-18 21:31N 39°34' E 002°38'0 0.0
2016-Jun-18 20:31N 39°34' E 002°38'0 0.0
2016-Jun-18 19:31N 39°34' E 002°38'0 0.0
2016-Jun-18 18:31N 39°34' E 002°38'0 0.0
2016-Jun-18 17:34N 39°34' E 002°38'0 0.0
2016-Jun-18 16:31N 39°34' E 002°38'0 0.0
2016-Jun-18 15:31N 39°34' E 002°38'0 0.0
2016-Jun-18 14:31N 39°34' E 002°38'  

Dump ship's entire track history